sensor_id;sensor_type;location;lat;lon;timestamp;pressure;altitude;pressure_sealevel;temperature;humidity
69239;BME280;56349;51.816;-0.026;2022-10-16T00:02:04;99911.90;;;22.27;37.70
69239;BME280;56349;51.816;-0.026;2022-10-16T00:04:30;99912.01;;;21.94;37.78
69239;BME280;56349;51.816;-0.026;2022-10-16T00:07:01;99919.51;;;21.88;37.88
69239;BME280;56349;51.816;-0.026;2022-10-16T00:09:21;99917.87;;;21.84;37.95
69239;BME280;56349;51.816;-0.026;2022-10-16T00:11:47;99917.85;;;22.07;38.01
69239;BME280;56349;51.816;-0.026;2022-10-16T00:14:14;99922.58;;;22.01;38.08
69239;BME280;56349;51.816;-0.026;2022-10-16T00:16:39;99927.62;;;21.71;38.15
69239;BME280;56349;51.816;-0.026;2022-10-16T00:19:05;99930.11;;;22.16;38.22
69239;BME280;56349;51.816;-0.026;2022-10-16T00:21:31;99926.69;;;22.12;38.27
69239;BME280;56349;51.816;-0.026;2022-10-16T00:23:57;99927.00;;;21.85;38.35
69239;BME280;56349;51.816;-0.026;2022-10-16T00:26:22;99927.24;;;22.05;38.38
69239;BME280;56349;51.816;-0.026;2022-10-16T00:28:47;99927.77;;;21.81;38.41
69239;BME280;56349;51.816;-0.026;2022-10-16T00:31:13;99928.49;;;22.00;38.44
69239;BME280;56349;51.816;-0.026;2022-10-16T00:33:39;99934.72;;;21.48;38.48
69239;BME280;56349;51.816;-0.026;2022-10-16T00:36:05;99931.46;;;21.72;38.52
69239;BME280;56349;51.816;-0.026;2022-10-16T00:38:29;99929.96;;;21.93;38.54
69239;BME280;56349;51.816;-0.026;2022-10-16T00:40:55;99933.85;;;21.91;38.56
69239;BME280;56349;51.816;-0.026;2022-10-16T00:45:46;99932.29;;;21.83;38.66
69239;BME280;56349;51.816;-0.026;2022-10-16T00:48:13;99935.81;;;21.58;38.71
69239;BME280;56349;51.816;-0.026;2022-10-16T00:50:38;99935.15;;;21.78;38.74
69239;BME280;56349;51.816;-0.026;2022-10-16T00:53:03;99937.91;;;21.75;38.76
69239;BME280;56349;51.816;-0.026;2022-10-16T00:55:29;99939.50;;;21.52;38.78
69239;BME280;56349;51.816;-0.026;2022-10-16T00:57:54;99944.54;;;21.73;38.81
69239;BME280;56349;51.816;-0.026;2022-10-16T01:00:21;99944.29;;;21.69;38.82
69239;BME280;56349;51.816;-0.026;2022-10-16T01:02:44;99952.08;;;21.67;38.86
69239;BME280;56349;51.816;-0.026;2022-10-16T01:05:10;99942.64;;;21.64;38.90
69239;BME280;56349;51.816;-0.026;2022-10-16T01:07:44;99942.41;;;21.61;38.93
69239;BME280;56349;51.816;-0.026;2022-10-16T01:10:10;99944.07;;;21.57;38.98
69239;BME280;56349;51.816;-0.026;2022-10-16T01:12:35;99947.31;;;21.51;39.07
69239;BME280;56349;51.816;-0.026;2022-10-16T01:14:55;99949.29;;;21.49;39.10
69239;BME280;56349;51.816;-0.026;2022-10-16T01:17:21;99957.82;;;21.47;39.12
69239;BME280;56349;51.816;-0.026;2022-10-16T01:22:11;99951.57;;;21.45;39.14
69239;BME280;56349;51.816;-0.026;2022-10-16T01:24:39;99953.33;;;21.48;39.11
69239;BME280;56349;51.816;-0.026;2022-10-16T01:27:09;99952.70;;;21.49;39.10
69239;BME280;56349;51.816;-0.026;2022-10-16T01:29:29;99952.14;;;21.49;39.08
69239;BME280;56349;51.816;-0.026;2022-10-16T01:31:57;99955.36;;;21.50;39.08
69239;BME280;56349;51.816;-0.026;2022-10-16T01:34:21;99950.95;;;21.49;39.09
69239;BME280;56349;51.816;-0.026;2022-10-16T01:36:49;99947.67;;;21.48;39.09
69239;BME280;56349;51.816;-0.026;2022-10-16T01:39:10;99959.94;;;21.46;39.09
69239;BME280;56349;51.816;-0.026;2022-10-16T01:41:37;99968.63;;;21.46;39.09
69239;BME280;56349;51.816;-0.026;2022-10-16T01:44:04;99970.90;;;21.45;39.11
69239;BME280;56349;51.816;-0.026;2022-10-16T01:46:32;99968.71;;;21.44;39.11
69239;BME280;56349;51.816;-0.026;2022-10-16T01:48:52;99971.63;;;21.64;39.14
69239;BME280;56349;51.816;-0.026;2022-10-16T01:51:18;99971.35;;;21.39;39.17
69239;BME280;56349;51.816;-0.026;2022-10-16T01:53:47;99967.47;;;21.36;39.20
69239;BME280;56349;51.816;-0.026;2022-10-16T01:56:10;99962.50;;;21.31;39.24
69239;BME280;56349;51.816;-0.026;2022-10-16T01:58:37;99960.90;;;21.28;39.30
69239;BME280;56349;51.816;-0.026;2022-10-16T02:01:02;99964.93;;;21.26;39.32
69239;BME280;56349;51.816;-0.026;2022-10-16T02:03:26;99960.54;;;21.24;39.35
69239;BME280;56349;51.816;-0.026;2022-10-16T02:05:52;99962.11;;;21.22;39.36
69239;BME280;56349;51.816;-0.026;2022-10-16T02:08:16;99969.23;;;21.20;39.39
69239;BME280;56349;51.816;-0.026;2022-10-16T02:10:41;99969.28;;;21.18;39.42
69239;BME280;56349;51.816;-0.026;2022-10-16T02:13:09;99968.71;;;21.38;39.44
69239;BME280;56349;51.816;-0.026;2022-10-16T02:15:32;99964.70;;;21.15;39.46
69239;BME280;56349;51.816;-0.026;2022-10-16T02:17:57;99973.98;;;21.35;39.48
69239;BME280;56349;51.816;-0.026;2022-10-16T02:20:27;99985.79;;;21.12;39.49
69239;BME280;56349;51.816;-0.026;2022-10-16T02:22:50;99990.20;;;21.10;39.52
69239;BME280;56349;51.816;-0.026;2022-10-16T02:25:19;99999.34;;;21.11;39.51
69239;BME280;56349;51.816;-0.026;2022-10-16T02:27:43;99997.84;;;21.35;39.47
69239;BME280;56349;51.816;-0.026;2022-10-16T02:30:08;100000.19;;;21.14;39.46
69239;BME280;56349;51.816;-0.026;2022-10-16T02:32:32;100000.81;;;21.35;39.46
69239;BME280;56349;51.816;-0.026;2022-10-16T02:34:56;100003.05;;;21.06;39.54
69239;BME280;56349;51.816;-0.026;2022-10-16T02:37:22;100004.60;;;21.24;39.58
69239;BME280;56349;51.816;-0.026;2022-10-16T02:39:52;100004.66;;;21.18;39.67
69239;BME280;56349;51.816;-0.026;2022-10-16T02:42:13;100007.28;;;20.93;39.70
69239;BME280;56349;51.816;-0.026;2022-10-16T02:44:37;100010.05;;;21.15;39.71
69239;BME280;56349;51.816;-0.026;2022-10-16T02:47:02;100010.93;;;21.12;39.74
69239;BME280;56349;51.816;-0.026;2022-10-16T02:49:29;100015.77;;;21.10;39.76
69239;BME280;56349;51.816;-0.026;2022-10-16T02:51:55;100022.49;;;21.06;39.79
69239;BME280;56349;51.816;-0.026;2022-10-16T02:54:21;100028.81;;;21.04;39.82
69239;BME280;56349;51.816;-0.026;2022-10-16T02:56:47;100034.13;;;20.98;39.88
69239;BME280;56349;51.816;-0.026;2022-10-16T02:59:13;100029.80;;;20.93;39.96
69239;BME280;56349;51.816;-0.026;2022-10-16T03:01:39;100034.93;;;21.15;40.04
69239;BME280;56349;51.816;-0.026;2022-10-16T03:04:05;100031.28;;;21.12;40.07
69239;BME280;56349;51.816;-0.026;2022-10-16T03:06:31;100033.38;;;21.10;40.10
69239;BME280;56349;51.816;-0.026;2022-10-16T03:08:57;100036.83;;;21.08;40.11
69239;BME280;56349;51.816;-0.026;2022-10-16T03:11:23;100034.68;;;21.05;40.14
69239;BME280;56349;51.816;-0.026;2022-10-16T03:13:49;100041.11;;;21.03;40.18
69239;BME280;56349;51.816;-0.026;2022-10-16T03:16:15;100049.04;;;21.03;40.19
69239;BME280;56349;51.816;-0.026;2022-10-16T03:18:41;100053.93;;;21.00;40.23
69239;BME280;56349;51.816;-0.026;2022-10-16T03:21:07;100051.19;;;20.98;40.23
69239;BME280;56349;51.816;-0.026;2022-10-16T03:23:34;100057.29;;;20.98;40.24
69239;BME280;56349;51.816;-0.026;2022-10-16T03:26:00;100058.01;;;21.00;40.22
69239;BME280;56349;51.816;-0.026;2022-10-16T03:28:26;100063.02;;;21.05;40.15
69239;BME280;56349;51.816;-0.026;2022-10-16T03:30:51;100070.48;;;20.82;40.11
69239;BME280;56349;51.816;-0.026;2022-10-16T03:33:16;100075.71;;;21.10;40.13
69239;BME280;56349;51.816;-0.026;2022-10-16T03:35:42;100077.49;;;20.84;40.19
69239;BME280;56349;51.816;-0.026;2022-10-16T03:38:08;100083.27;;;20.87;40.23
69239;BME280;56349;51.816;-0.026;2022-10-16T03:40:33;100084.53;;;20.89;40.27
69239;BME280;56349;51.816;-0.026;2022-10-16T03:42:58;100087.91;;;21.20;40.33
69239;BME280;56349;51.816;-0.026;2022-10-16T03:45:23;100094.72;;;20.76;40.34
69239;BME280;56349;51.816;-0.026;2022-10-16T03:47:49;100099.91;;;21.09;40.28
69239;BME280;56349;51.816;-0.026;2022-10-16T03:50:16;100101.34;;;21.00;40.15
69239;BME280;56349;51.816;-0.026;2022-10-16T03:52:41;100104.48;;;21.36;39.96
69239;BME280;56349;51.816;-0.026;2022-10-16T03:55:07;100105.78;;;21.49;39.76
69239;BME280;56349;51.816;-0.026;2022-10-16T03:57:32;100109.33;;;21.34;39.59
69239;BME280;56349;51.816;-0.026;2022-10-16T03:59:58;100112.27;;;21.41;39.42
69239;BME280;56349;51.816;-0.026;2022-10-16T04:02:24;100114.73;;;21.47;39.26
69239;BME280;56349;51.816;-0.026;2022-10-16T04:04:50;100117.36;;;21.48;39.16
69239;BME280;56349;51.816;-0.026;2022-10-16T04:07:16;100125.36;;;21.46;39.11
69239;BME280;56349;51.816;-0.026;2022-10-16T04:09:42;100126.04;;;21.44;39.06
69239;BME280;56349;51.816;-0.026;2022-10-16T04:12:07;100130.28;;;21.61;39.06
69239;BME280;56349;51.816;-0.026;2022-10-16T04:14:34;100130.67;;;21.34;39.06
69239;BME280;56349;51.816;-0.026;2022-10-16T04:16:59;100136.78;;;21.27;39.09
69239;BME280;56349;51.816;-0.026;2022-10-16T04:19:25;100140.42;;;21.45;39.10
69239;BME280;56349;51.816;-0.026;2022-10-16T04:21:51;100141.83;;;21.19;39.10
69239;BME280;56349;51.816;-0.026;2022-10-16T04:24:17;100150.95;;;21.37;39.12
69239;BME280;56349;51.816;-0.026;2022-10-16T04:26:43;100155.98;;;21.32;39.15
69239;BME280;56349;51.816;-0.026;2022-10-16T04:29:09;100167.44;;;21.04;39.19
69239;BME280;56349;51.816;-0.026;2022-10-16T04:31:35;100172.88;;;21.21;39.24
69239;BME280;56349;51.816;-0.026;2022-10-16T04:34:02;100171.09;;;21.18;39.25
69239;BME280;56349;51.816;-0.026;2022-10-16T04:36:27;100174.04;;;21.14;39.30
69239;BME280;56349;51.816;-0.026;2022-10-16T04:38:53;100178.64;;;21.36;39.34
69239;BME280;56349;51.816;-0.026;2022-10-16T04:41:18;100180.35;;;21.04;39.38
69239;BME280;56349;51.816;-0.026;2022-10-16T04:43:44;100185.38;;;20.99;39.42
69239;BME280;56349;51.816;-0.026;2022-10-16T04:46:10;100189.49;;;21.21;39.48
69239;BME280;56349;51.816;-0.026;2022-10-16T04:48:35;100195.40;;;20.91;39.51
69239;BME280;56349;51.816;-0.026;2022-10-16T04:51:01;100206.10;;;21.16;39.52
69239;BME280;56349;51.816;-0.026;2022-10-16T04:53:27;100214.81;;;21.14;39.54
69239;BME280;56349;51.816;-0.026;2022-10-16T04:55:53;100220.37;;;21.13;39.54
69239;BME280;56349;51.816;-0.026;2022-10-16T04:58:19;100227.89;;;20.83;39.58
69239;BME280;56349;51.816;-0.026;2022-10-16T05:00:45;100232.74;;;20.79;39.62
69239;BME280;56349;51.816;-0.026;2022-10-16T05:03:12;100240.47;;;20.74;39.67
69239;BME280;56349;51.816;-0.026;2022-10-16T05:05:41;100247.26;;;21.00;39.69
69239;BME280;56349;51.816;-0.026;2022-10-16T05:08:03;100256.07;;;20.72;39.69
69239;BME280;56349;51.816;-0.026;2022-10-16T05:10:28;100262.12;;;20.70;39.70
69239;BME280;56349;51.816;-0.026;2022-10-16T05:12:54;100264.01;;;20.45;39.74
69239;BME280;56349;51.816;-0.026;2022-10-16T05:15:20;100263.39;;;20.67;39.76
69239;BME280;56349;51.816;-0.026;2022-10-16T05:17:46;100268.03;;;20.64;39.77
69239;BME280;56349;51.816;-0.026;2022-10-16T05:20:12;100268.93;;;20.86;39.81
69239;BME280;56349;51.816;-0.026;2022-10-16T05:22:38;100273.93;;;20.59;39.82
69239;BME280;56349;51.816;-0.026;2022-10-16T05:25:05;100280.71;;;20.40;39.79
69239;BME280;56349;51.816;-0.026;2022-10-16T05:27:30;100285.91;;;20.91;39.76
69239;BME280;56349;51.816;-0.026;2022-10-16T05:29:56;100288.09;;;20.90;39.77
69239;BME280;56349;51.816;-0.026;2022-10-16T05:32:21;100290.73;;;20.65;39.75
69239;BME280;56349;51.816;-0.026;2022-10-16T05:34:47;100294.69;;;20.63;39.77
69239;BME280;56349;51.816;-0.026;2022-10-16T05:37:12;100301.46;;;20.65;39.73
69239;BME280;56349;51.816;-0.026;2022-10-16T05:39:37;100305.40;;;20.40;39.77
69239;BME280;56349;51.816;-0.026;2022-10-16T05:42:03;100303.65;;;20.88;39.77
69239;BME280;56349;51.816;-0.026;2022-10-16T05:44:30;100304.77;;;20.85;39.79
69239;BME280;56349;51.816;-0.026;2022-10-16T05:46:56;100309.36;;;20.82;39.81
69239;BME280;56349;51.816;-0.026;2022-10-16T05:49:21;100314.03;;;20.52;39.85
69239;BME280;56349;51.816;-0.026;2022-10-16T05:51:47;100318.74;;;20.77;39.88
69239;BME280;56349;51.816;-0.026;2022-10-16T05:54:13;100324.69;;;20.75;39.90
69239;BME280;56349;51.816;-0.026;2022-10-16T05:56:38;100329.31;;;20.46;39.93
69239;BME280;56349;51.816;-0.026;2022-10-16T05:59:05;100332.41;;;20.69;39.98
69239;BME280;56349;51.816;-0.026;2022-10-16T06:01:30;100334.83;;;20.68;39.98
69239;BME280;56349;51.816;-0.026;2022-10-16T06:03:55;100338.97;;;20.67;40.01
69239;BME280;56349;51.816;-0.026;2022-10-16T06:06:23;100340.07;;;20.66;40.03
69239;BME280;56349;51.816;-0.026;2022-10-16T06:08:48;100346.51;;;20.64;40.07
69239;BME280;56349;51.816;-0.026;2022-10-16T06:11:14;100346.85;;;20.63;40.07
69239;BME280;56349;51.816;-0.026;2022-10-16T06:13:38;100349.66;;;20.63;40.07
69239;BME280;56349;51.816;-0.026;2022-10-16T06:16:04;100353.66;;;20.60;40.09
69239;BME280;56349;51.816;-0.026;2022-10-16T06:18:29;100355.52;;;20.57;40.13
69239;BME280;56349;51.816;-0.026;2022-10-16T06:20:55;100352.94;;;20.52;40.19
69239;BME280;56349;51.816;-0.026;2022-10-16T06:23:20;100362.77;;;20.52;40.21
69239;BME280;56349;51.816;-0.026;2022-10-16T06:25:45;100369.79;;;20.53;40.19
69239;BME280;56349;51.816;-0.026;2022-10-16T06:28:10;100373.79;;;20.51;40.20
69239;BME280;56349;51.816;-0.026;2022-10-16T06:30:36;100381.40;;;20.50;40.26
69239;BME280;56349;51.816;-0.026;2022-10-16T06:33:02;100383.65;;;20.25;40.21
69239;BME280;56349;51.816;-0.026;2022-10-16T06:35:28;100386.12;;;20.51;40.22
69239;BME280;56349;51.816;-0.026;2022-10-16T06:37:54;100390.11;;;20.52;40.22
69239;BME280;56349;51.816;-0.026;2022-10-16T06:40:21;100389.53;;;20.52;40.20
69239;BME280;56349;51.816;-0.026;2022-10-16T06:42:46;100398.08;;;20.49;40.25
69239;BME280;56349;51.816;-0.026;2022-10-16T06:45:11;100398.80;;;20.46;40.33
69239;BME280;56349;51.816;-0.026;2022-10-16T06:47:37;100401.06;;;20.39;40.43
69239;BME280;56349;51.816;-0.026;2022-10-16T06:50:04;100402.77;;;20.56;40.59
69239;BME280;56349;51.816;-0.026;2022-10-16T06:52:28;100412.50;;;20.31;40.83
69239;BME280;56349;51.816;-0.026;2022-10-16T06:54:53;100407.90;;;20.51;41.06
69239;BME280;56349;51.816;-0.026;2022-10-16T06:57:19;100414.37;;;20.30;41.22
69239;BME280;56349;51.816;-0.026;2022-10-16T06:59:45;100417.96;;;20.31;41.37
69239;BME280;56349;51.816;-0.026;2022-10-16T07:02:11;100421.54;;;20.57;41.59
69239;BME280;56349;51.816;-0.026;2022-10-16T07:04:38;100430.86;;;20.39;41.78
69239;BME280;56349;51.816;-0.026;2022-10-16T07:07:04;100436.75;;;20.49;41.88
69239;BME280;56349;51.816;-0.026;2022-10-16T07:09:30;100440.58;;;20.63;41.90
69239;BME280;56349;51.816;-0.026;2022-10-16T07:11:56;100447.89;;;20.75;41.91
69239;BME280;56349;51.816;-0.026;2022-10-16T07:14:22;100452.91;;;20.93;41.84
69239;BME280;56349;51.816;-0.026;2022-10-16T07:16:48;100455.47;;;20.84;41.71
69239;BME280;56349;51.816;-0.026;2022-10-16T07:19:15;100455.11;;;21.04;41.53
69239;BME280;56349;51.816;-0.026;2022-10-16T07:21:38;100457.40;;;21.27;41.33
69239;BME280;56349;51.816;-0.026;2022-10-16T07:24:07;100459.20;;;21.26;41.07
69239;BME280;56349;51.816;-0.026;2022-10-16T07:26:32;100463.73;;;21.50;40.82
69239;BME280;56349;51.816;-0.026;2022-10-16T07:28:56;100469.57;;;21.54;40.52
69239;BME280;56349;51.816;-0.026;2022-10-16T07:31:21;100477.30;;;21.83;40.17
69239;BME280;56349;51.816;-0.026;2022-10-16T07:33:47;100487.40;;;21.86;39.80
69239;BME280;56349;51.816;-0.026;2022-10-16T07:36:13;100493.85;;;22.07;39.49
69239;BME280;56349;51.816;-0.026;2022-10-16T07:38:37;100498.32;;;22.28;39.21
69239;BME280;56349;51.816;-0.026;2022-10-16T07:41:05;100498.72;;;22.44;38.98
69239;BME280;56349;51.816;-0.026;2022-10-16T07:43:30;100501.04;;;22.08;38.78
69239;BME280;56349;51.816;-0.026;2022-10-16T07:45:56;100504.71;;;22.48;38.56
69239;BME280;56349;51.816;-0.026;2022-10-16T07:48:21;100507.69;;;22.39;38.31
69239;BME280;56349;51.816;-0.026;2022-10-16T07:50:46;100508.42;;;22.82;38.05
69239;BME280;56349;51.816;-0.026;2022-10-16T07:53:12;100513.20;;;22.98;37.84
69239;BME280;56349;51.816;-0.026;2022-10-16T07:55:37;100512.50;;;23.08;37.64
69239;BME280;56349;51.816;-0.026;2022-10-16T07:58:03;100515.68;;;22.88;37.50
69239;BME280;56349;51.816;-0.026;2022-10-16T08:00:28;100518.07;;;23.23;37.30
69239;BME280;56349;51.816;-0.026;2022-10-16T08:02:54;100522.02;;;23.00;37.19
69239;BME280;56349;51.816;-0.026;2022-10-16T08:05:20;100530.21;;;23.05;37.07
69239;BME280;56349;51.816;-0.026;2022-10-16T08:07:48;100531.75;;;23.37;36.94
69239;BME280;56349;51.816;-0.026;2022-10-16T08:10:16;100537.53;;;23.15;36.82
69239;BME280;56349;51.816;-0.026;2022-10-16T08:12:35;100541.66;;;23.23;36.67
69239;BME280;56349;51.816;-0.026;2022-10-16T08:15:01;100541.58;;;23.06;36.54
69239;BME280;56349;51.816;-0.026;2022-10-16T08:17:27;100544.32;;;23.33;36.42
69239;BME280;56349;51.816;-0.026;2022-10-16T08:19:53;100546.24;;;23.14;36.31
69239;BME280;56349;51.816;-0.026;2022-10-16T08:22:19;100546.44;;;23.38;36.21
69239;BME280;56349;51.816;-0.026;2022-10-16T08:24:46;100547.53;;;22.95;36.13
69239;BME280;56349;51.816;-0.026;2022-10-16T08:27:11;100550.45;;;23.19;36.02
69239;BME280;56349;51.816;-0.026;2022-10-16T08:29:37;100555.26;;;23.45;35.90
69239;BME280;56349;51.816;-0.026;2022-10-16T08:32:04;100557.91;;;23.44;35.81
69239;BME280;56349;51.816;-0.026;2022-10-16T08:34:29;100565.50;;;23.26;35.68
69239;BME280;56349;51.816;-0.026;2022-10-16T08:36:55;100571.46;;;23.26;35.60
69239;BME280;56349;51.816;-0.026;2022-10-16T08:39:21;100570.68;;;23.28;35.52
69239;BME280;56349;51.816;-0.026;2022-10-16T08:42:02;100576.54;;;23.30;35.42
69239;BME280;56349;51.816;-0.026;2022-10-16T08:44:23;100579.73;;;23.10;35.32
69239;BME280;56349;51.816;-0.026;2022-10-16T08:46:45;100583.64;;;23.37;35.22
69239;BME280;56349;51.816;-0.026;2022-10-16T08:49:10;100585.63;;;23.40;35.08
69239;BME280;56349;51.816;-0.026;2022-10-16T08:51:32;100593.70;;;23.43;34.98
69239;BME280;56349;51.816;-0.026;2022-10-16T08:53:57;100597.10;;;23.21;34.93
69239;BME280;56349;51.816;-0.026;2022-10-16T08:56:22;100603.55;;;23.45;34.85
69239;BME280;56349;51.816;-0.026;2022-10-16T08:58:47;100604.07;;;23.21;34.79
69239;BME280;56349;51.816;-0.026;2022-10-16T09:01:15;100608.16;;;23.22;34.75
69239;BME280;56349;51.816;-0.026;2022-10-16T09:03:51;100605.53;;;23.27;34.62
69239;BME280;56349;51.816;-0.026;2022-10-16T09:06:12;100610.57;;;23.34;34.50
69239;BME280;56349;51.816;-0.026;2022-10-16T09:08:37;100613.55;;;23.41;34.38
69239;BME280;56349;51.816;-0.026;2022-10-16T09:10:58;100611.98;;;23.43;34.30
69239;BME280;56349;51.816;-0.026;2022-10-16T09:13:26;100611.49;;;23.44;34.23
69239;BME280;56349;51.816;-0.026;2022-10-16T09:15:51;100614.82;;;23.45;34.15
69239;BME280;56349;51.816;-0.026;2022-10-16T09:18:16;100620.23;;;23.23;34.05
69239;BME280;56349;51.816;-0.026;2022-10-16T09:20:47;100620.59;;;23.71;34.01
69239;BME280;56349;51.816;-0.026;2022-10-16T09:25:28;100627.68;;;23.50;33.90
69239;BME280;56349;51.816;-0.026;2022-10-16T09:27:53;100630.94;;;23.26;33.81
69239;BME280;56349;51.816;-0.026;2022-10-16T09:30:20;100636.90;;;23.54;33.75
69239;BME280;56349;51.816;-0.026;2022-10-16T09:32:47;100643.36;;;23.54;33.70
69239;BME280;56349;51.816;-0.026;2022-10-16T09:35:14;100649.22;;;23.54;33.68
69239;BME280;56349;51.816;-0.026;2022-10-16T09:37:35;100648.08;;;23.53;33.65
69239;BME280;56349;51.816;-0.026;2022-10-16T09:40:00;100645.80;;;23.55;33.60
69239;BME280;56349;51.816;-0.026;2022-10-16T09:42:30;100642.66;;;23.56;33.53
69239;BME280;56349;51.816;-0.026;2022-10-16T09:44:53;100636.73;;;23.49;33.55
69239;BME280;56349;51.816;-0.026;2022-10-16T09:47:20;100639.38;;;23.41;33.61
69239;BME280;56349;51.816;-0.026;2022-10-16T09:49:52;100635.89;;;23.37;33.63
69239;BME280;56349;51.816;-0.026;2022-10-16T09:52:12;100639.44;;;23.33;33.69
69239;BME280;56349;51.816;-0.026;2022-10-16T09:54:34;100636.04;;;23.76;33.70
69239;BME280;56349;51.816;-0.026;2022-10-16T09:57:05;100636.13;;;23.26;33.73
69239;BME280;56349;51.816;-0.026;2022-10-16T09:59:26;100634.96;;;23.25;33.73
69239;BME280;56349;51.816;-0.026;2022-10-16T10:01:52;100637.79;;;23.44;33.74
69239;BME280;56349;51.816;-0.026;2022-10-16T10:04:17;100642.75;;;23.23;33.69
69239;BME280;56349;51.816;-0.026;2022-10-16T10:06:45;100641.23;;;23.23;33.60
69239;BME280;56349;51.816;-0.026;2022-10-16T10:09:16;100638.39;;;23.22;33.54
69239;BME280;56349;51.816;-0.026;2022-10-16T10:11:38;100636.15;;;23.40;33.55
69239;BME280;56349;51.816;-0.026;2022-10-16T10:14:04;100638.78;;;23.59;33.51
69239;BME280;56349;51.816;-0.026;2022-10-16T10:16:24;100645.88;;;23.54;33.55
69239;BME280;56349;51.816;-0.026;2022-10-16T10:18:57;100647.61;;;23.23;33.70
69239;BME280;56349;51.816;-0.026;2022-10-16T10:21:15;100653.15;;;23.12;33.92
69239;BME280;56349;51.816;-0.026;2022-10-16T10:23:40;100657.44;;;23.07;34.08
69239;BME280;56349;51.816;-0.026;2022-10-16T10:26:10;100661.01;;;23.04;34.19
69239;BME280;56349;51.816;-0.026;2022-10-16T10:28:42;100658.72;;;23.02;34.24
69239;BME280;56349;51.816;-0.026;2022-10-16T10:31:03;100661.53;;;23.03;34.32
69239;BME280;56349;51.816;-0.026;2022-10-16T10:33:30;100664.18;;;22.79;34.37
69239;BME280;56349;51.816;-0.026;2022-10-16T10:35:56;100664.66;;;23.15;34.52
69239;BME280;56349;51.816;-0.026;2022-10-16T10:38:26;100660.20;;;23.08;34.75
69239;BME280;56349;51.816;-0.026;2022-10-16T10:40:47;100656.81;;;23.04;34.90
69239;BME280;56349;51.816;-0.026;2022-10-16T10:43:10;100655.23;;;23.04;35.01
69239;BME280;56349;51.816;-0.026;2022-10-16T10:45:39;100652.90;;;23.03;35.13
69239;BME280;56349;51.816;-0.026;2022-10-16T10:48:06;100653.16;;;22.80;35.22
69239;BME280;56349;51.816;-0.026;2022-10-16T10:50:25;100654.03;;;22.61;35.29
69239;BME280;56349;51.816;-0.026;2022-10-16T10:52:58;100652.67;;;23.13;35.35
69239;BME280;56349;51.816;-0.026;2022-10-16T10:55:19;100650.50;;;23.19;35.43
69239;BME280;56349;51.816;-0.026;2022-10-16T10:57:44;100649.78;;;22.82;35.42
69239;BME280;56349;51.816;-0.026;2022-10-16T11:00:16;100651.24;;;23.29;35.44
69239;BME280;56349;51.816;-0.026;2022-10-16T11:02:34;100652.39;;;23.11;35.41
69239;BME280;56349;51.816;-0.026;2022-10-16T11:07:24;100655.39;;;23.20;35.33
69239;BME280;56349;51.816;-0.026;2022-10-16T11:09:49;100663.19;;;23.26;35.28
69239;BME280;56349;51.816;-0.026;2022-10-16T11:12:17;100658.50;;;23.09;35.23
69239;BME280;56349;51.816;-0.026;2022-10-16T11:14:42;100651.49;;;23.12;35.17
69239;BME280;56349;51.816;-0.026;2022-10-16T11:17:05;100644.12;;;23.15;35.15
69239;BME280;56349;51.816;-0.026;2022-10-16T11:19:35;100646.09;;;23.21;35.05
69239;BME280;56349;51.816;-0.026;2022-10-16T11:21:59;100648.04;;;23.27;35.02
69239;BME280;56349;51.816;-0.026;2022-10-16T11:24:22;100648.64;;;23.29;34.99
69239;BME280;56349;51.816;-0.026;2022-10-16T11:26:46;100644.34;;;23.56;35.05
69239;BME280;56349;51.816;-0.026;2022-10-16T11:29:15;100641.26;;;23.37;35.06
69239;BME280;56349;51.816;-0.026;2022-10-16T11:31:39;100644.19;;;23.41;35.07
69239;BME280;56349;51.816;-0.026;2022-10-16T11:34:09;100642.67;;;23.45;35.10
69239;BME280;56349;51.816;-0.026;2022-10-16T11:36:34;100645.64;;;23.49;35.08
69239;BME280;56349;51.816;-0.026;2022-10-16T11:38:58;100651.61;;;23.53;35.11
69239;BME280;56349;51.816;-0.026;2022-10-16T11:41:24;100650.87;;;23.58;35.10
69239;BME280;56349;51.816;-0.026;2022-10-16T11:43:50;100655.77;;;23.61;35.08
69239;BME280;56349;51.816;-0.026;2022-10-16T11:46:12;100649.82;;;23.63;35.07
69239;BME280;56349;51.816;-0.026;2022-10-16T11:48:39;100649.77;;;23.69;35.03
69239;BME280;56349;51.816;-0.026;2022-10-16T11:51:07;100649.65;;;23.72;34.94
69239;BME280;56349;51.816;-0.026;2022-10-16T11:53:38;100648.79;;;23.75;34.88
69239;BME280;56349;51.816;-0.026;2022-10-16T11:55:50;100648.34;;;23.81;34.78
69239;BME280;56349;51.816;-0.026;2022-10-16T11:58:23;100651.98;;;23.83;34.76
69239;BME280;56349;51.816;-0.026;2022-10-16T12:00:46;100653.63;;;23.86;34.78
69239;BME280;56349;51.816;-0.026;2022-10-16T12:03:15;100652.48;;;23.89;34.72
69239;BME280;56349;51.816;-0.026;2022-10-16T12:05:46;100650.85;;;23.89;34.73
69239;BME280;56349;51.816;-0.026;2022-10-16T12:08:07;100645.46;;;23.91;34.76
69239;BME280;56349;51.816;-0.026;2022-10-16T12:10:27;100647.00;;;23.90;34.80
69239;BME280;56349;51.816;-0.026;2022-10-16T12:12:50;100647.95;;;23.69;34.82
69239;BME280;56349;51.816;-0.026;2022-10-16T12:15:22;100648.74;;;24.02;34.79
69239;BME280;56349;51.816;-0.026;2022-10-16T12:17:41;100653.31;;;24.06;34.75
69239;BME280;56349;51.816;-0.026;2022-10-16T12:20:19;100652.06;;;24.10;34.73
69239;BME280;56349;51.816;-0.026;2022-10-16T12:22:33;100650.66;;;24.13;34.78
69239;BME280;56349;51.816;-0.026;2022-10-16T12:24:59;100646.66;;;24.15;34.71
69239;BME280;56349;51.816;-0.026;2022-10-16T12:27:29;100646.29;;;24.16;34.66
69239;BME280;56349;51.816;-0.026;2022-10-16T12:29:55;100645.28;;;23.89;34.63
69239;BME280;56349;51.816;-0.026;2022-10-16T12:32:25;100652.91;;;24.17;34.61
69239;BME280;56349;51.816;-0.026;2022-10-16T12:34:43;100646.35;;;24.19;34.58
69239;BME280;56349;51.816;-0.026;2022-10-16T12:37:12;100652.20;;;23.94;34.54
69239;BME280;56349;51.816;-0.026;2022-10-16T12:39:35;100653.48;;;23.93;34.54
69239;BME280;56349;51.816;-0.026;2022-10-16T12:42:01;100651.77;;;24.24;34.51
69239;BME280;56349;51.816;-0.026;2022-10-16T12:44:25;100649.67;;;24.23;34.45